sensor_id;sensor_type;location;lat;lon;timestamp;temperature;humidity
41904;DHT22;27586;51.124;4.182;2023-02-05T00:02:01;9.60;99.90
41904;DHT22;27586;51.124;4.182;2023-02-05T00:04:26;9.50;99.90
41904;DHT22;27586;51.124;4.182;2023-02-05T00:06:52;9.50;99.90
41904;DHT22;27586;51.124;4.182;2023-02-05T00:09:18;9.50;99.90
41904;DHT22;27586;51.124;4.182;2023-02-05T00:11:43;9.50;99.90
41904;DHT22;27586;51.124;4.182;2023-02-05T00:14:09;9.40;99.90
41904;DHT22;27586;51.124;4.182;2023-02-05T00:16:35;9.50;99.90
41904;DHT22;27586;51.124;4.182;2023-02-05T00:19:01;9.50;99.90
41904;DHT22;27586;51.124;4.182;2023-02-05T00:21:26;9.40;99.90
41904;DHT22;27586;51.124;4.182;2023-02-05T00:23:52;9.30;99.90
41904;DHT22;27586;51.124;4.182;2023-02-05T00:26:18;9.20;99.90
41904;DHT22;27586;51.124;4.182;2023-02-05T00:28:44;9.20;99.90
41904;DHT22;27586;51.124;4.182;2023-02-05T00:31:16;9.20;99.90
41904;DHT22;27586;51.124;4.182;2023-02-05T00:33:42;9.20;99.90
41904;DHT22;27586;51.124;4.182;2023-02-05T00:36:09;9.20;99.90
41904;DHT22;27586;51.124;4.182;2023-02-05T00:38:35;9.20;99.90
41904;DHT22;27586;51.124;4.182;2023-02-05T00:41:01;9.10;99.90
41904;DHT22;27586;51.124;4.182;2023-02-05T00:43:27;9.10;99.90
41904;DHT22;27586;51.124;4.182;2023-02-05T00:45:52;9.20;99.90
41904;DHT22;27586;51.124;4.182;2023-02-05T00:48:18;9.20;99.90
41904;DHT22;27586;51.124;4.182;2023-02-05T00:50:44;9.20;99.90
41904;DHT22;27586;51.124;4.182;2023-02-05T00:53:09;9.20;99.90
41904;DHT22;27586;51.124;4.182;2023-02-05T00:55:35;9.20;99.90
41904;DHT22;27586;51.124;4.182;2023-02-05T00:58:00;9.20;99.90
41904;DHT22;27586;51.124;4.182;2023-02-05T01:00:27;9.10;99.90
41904;DHT22;27586;51.124;4.182;2023-02-05T01:02:53;9.10;99.90
41904;DHT22;27586;51.124;4.182;2023-02-05T01:05:19;9.10;99.90
41904;DHT22;27586;51.124;4.182;2023-02-05T01:07:45;9.20;99.90
41904;DHT22;27586;51.124;4.182;2023-02-05T01:10:11;9.10;99.90
41904;DHT22;27586;51.124;4.182;2023-02-05T01:12:36;9.10;99.90
41904;DHT22;27586;51.124;4.182;2023-02-05T01:15:04;9.00;99.90
41904;DHT22;27586;51.124;4.182;2023-02-05T01:17:30;9.00;99.90
41904;DHT22;27586;51.124;4.182;2023-02-05T01:19:56;9.20;99.90
41904;DHT22;27586;51.124;4.182;2023-02-05T01:22:22;9.20;99.90
41904;DHT22;27586;51.124;4.182;2023-02-05T01:24:47;9.10;99.90
41904;DHT22;27586;51.124;4.182;2023-02-05T01:27:13;9.10;99.90
41904;DHT22;27586;51.124;4.182;2023-02-05T01:29:39;9.10;99.90
41904;DHT22;27586;51.124;4.182;2023-02-05T01:32:05;9.20;99.90
41904;DHT22;27586;51.124;4.182;2023-02-05T01:34:30;9.10;99.90
41904;DHT22;27586;51.124;4.182;2023-02-05T01:36:56;9.20;99.90
41904;DHT22;27586;51.124;4.182;2023-02-05T01:39:21;9.10;99.90
41904;DHT22;27586;51.124;4.182;2023-02-05T01:41:47;9.10;99.90
41904;DHT22;27586;51.124;4.182;2023-02-05T01:44:16;9.20;99.90
41904;DHT22;27586;51.124;4.182;2023-02-05T01:46:47;9.20;99.90
41904;DHT22;27586;51.124;4.182;2023-02-05T01:49:40;9.20;99.90
41904;DHT22;27586;51.124;4.182;2023-02-05T01:52:11;9.20;99.90
41904;DHT22;27586;51.124;4.182;2023-02-05T01:54:41;9.20;99.90
41904;DHT22;27586;51.124;4.182;2023-02-05T01:57:18;9.20;99.90
41904;DHT22;27586;51.124;4.182;2023-02-05T01:59:45;9.20;99.90
41904;DHT22;27586;51.124;4.182;2023-02-05T02:02:11;9.10;99.90
41904;DHT22;27586;51.124;4.182;2023-02-05T02:04:44;9.20;99.90
41904;DHT22;27586;51.124;4.182;2023-02-05T02:07:13;9.20;99.90
41904;DHT22;27586;51.124;4.182;2023-02-05T02:09:41;9.10;99.90
41904;DHT22;27586;51.124;4.182;2023-02-05T02:12:12;9.10;99.90
41904;DHT22;27586;51.124;4.182;2023-02-05T02:14:40;9.00;99.90
41904;DHT22;27586;51.124;4.182;2023-02-05T02:17:07;9.00;99.90
41904;DHT22;27586;51.124;4.182;2023-02-05T02:22:35;9.00;99.90
41904;DHT22;27586;51.124;4.182;2023-02-05T02:27:48;9.00;99.90
41904;DHT22;27586;51.124;4.182;2023-02-05T02:30:56;8.90;99.90
41904;DHT22;27586;51.124;4.182;2023-02-05T02:38:50;9.00;99.90
41904;DHT22;27586;51.124;4.182;2023-02-05T02:41:27;9.00;99.90
41904;DHT22;27586;51.124;4.182;2023-02-05T02:43:58;9.00;99.90
41904;DHT22;27586;51.124;4.182;2023-02-05T02:49:06;9.00;99.90
41904;DHT22;27586;51.124;4.182;2023-02-05T02:51:34;9.00;99.90
41904;DHT22;27586;51.124;4.182;2023-02-05T02:54:05;9.00;99.90
41904;DHT22;27586;51.124;4.182;2023-02-05T02:56:32;8.90;99.90
41904;DHT22;27586;51.124;4.182;2023-02-05T02:59:04;8.80;99.90
41904;DHT22;27586;51.124;4.182;2023-02-05T03:01:33;8.70;99.90
41904;DHT22;27586;51.124;4.182;2023-02-05T03:04:06;8.70;99.90
41904;DHT22;27586;51.124;4.182;2023-02-05T03:06:33;8.70;99.90
41904;DHT22;27586;51.124;4.182;2023-02-05T03:09:07;8.70;99.90
41904;DHT22;27586;51.124;4.182;2023-02-05T03:11:35;8.60;99.90
41904;DHT22;27586;51.124;4.182;2023-02-05T03:14:01;8.60;99.90
41904;DHT22;27586;51.124;4.182;2023-02-05T03:16:28;8.60;99.90
41904;DHT22;27586;51.124;4.182;2023-02-05T03:18:55;8.60;99.90
41904;DHT22;27586;51.124;4.182;2023-02-05T03:21:26;8.70;99.90
41904;DHT22;27586;51.124;4.182;2023-02-05T03:23:53;8.60;99.90
41904;DHT22;27586;51.124;4.182;2023-02-05T03:26:29;8.60;99.90
41904;DHT22;27586;51.124;4.182;2023-02-05T03:28:59;8.70;99.90
41904;DHT22;27586;51.124;4.182;2023-02-05T03:43:15;8.60;99.90
41904;DHT22;27586;51.124;4.182;2023-02-05T03:48:32;8.80;99.90
41904;DHT22;27586;51.124;4.182;2023-02-05T03:53:44;8.70;99.90
41904;DHT22;27586;51.124;4.182;2023-02-05T03:56:20;8.80;99.90
41904;DHT22;27586;51.124;4.182;2023-02-05T03:58:51;8.80;99.90
41904;DHT22;27586;51.124;4.182;2023-02-05T04:01:19;8.90;99.90
41904;DHT22;27586;51.124;4.182;2023-02-05T04:03:45;8.80;99.90
41904;DHT22;27586;51.124;4.182;2023-02-05T04:06:10;8.80;99.90
41904;DHT22;27586;51.124;4.182;2023-02-05T04:08:36;8.80;99.90
41904;DHT22;27586;51.124;4.182;2023-02-05T04:11:02;8.80;99.90
41904;DHT22;27586;51.124;4.182;2023-02-05T04:13:28;8.80;99.90
41904;DHT22;27586;51.124;4.182;2023-02-05T04:15:54;8.80;99.90
41904;DHT22;27586;51.124;4.182;2023-02-05T04:18:20;8.90;99.90
41904;DHT22;27586;51.124;4.182;2023-02-05T04:20:45;9.00;99.90
41904;DHT22;27586;51.124;4.182;2023-02-05T04:23:11;9.00;99.90
41904;DHT22;27586;51.124;4.182;2023-02-05T04:25:38;9.00;99.90
41904;DHT22;27586;51.124;4.182;2023-02-05T04:28:05;8.90;99.90
41904;DHT22;27586;51.124;4.182;2023-02-05T04:30:31;9.00;99.90
41904;DHT22;27586;51.124;4.182;2023-02-05T04:32:57;9.00;99.90
41904;DHT22;27586;51.124;4.182;2023-02-05T04:35:23;8.90;99.90
41904;DHT22;27586;51.124;4.182;2023-02-05T04:37:49;8.90;99.90
41904;DHT22;27586;51.124;4.182;2023-02-05T04:40:14;8.80;99.90
41904;DHT22;27586;51.124;4.182;2023-02-05T04:42:40;8.90;99.90
41904;DHT22;27586;51.124;4.182;2023-02-05T04:45:06;8.90;99.90
41904;DHT22;27586;51.124;4.182;2023-02-05T04:47:32;8.90;99.90
41904;DHT22;27586;51.124;4.182;2023-02-05T04:49:58;8.90;99.90
41904;DHT22;27586;51.124;4.182;2023-02-05T04:52:24;8.90;99.90
41904;DHT22;27586;51.124;4.182;2023-02-05T04:54:49;8.90;99.90
41904;DHT22;27586;51.124;4.182;2023-02-05T04:57:16;8.80;99.90
41904;DHT22;27586;51.124;4.182;2023-02-05T04:59:42;8.90;99.90
41904;DHT22;27586;51.124;4.182;2023-02-05T05:02:08;8.80;99.90
41904;DHT22;27586;51.124;4.182;2023-02-05T05:04:34;8.80;99.90
41904;DHT22;27586;51.124;4.182;2023-02-05T05:07:00;8.80;99.90
41904;DHT22;27586;51.124;4.182;2023-02-05T05:09:26;8.90;99.90
41904;DHT22;27586;51.124;4.182;2023-02-05T05:11:52;8.90;99.90
41904;DHT22;27586;51.124;4.182;2023-02-05T05:14:18;9.00;99.90
41904;DHT22;27586;51.124;4.182;2023-02-05T05:16:44;8.90;99.90
41904;DHT22;27586;51.124;4.182;2023-02-05T05:19:10;8.80;99.90
41904;DHT22;27586;51.124;4.182;2023-02-05T05:21:36;8.80;99.90
41904;DHT22;27586;51.124;4.182;2023-02-05T05:24:01;8.80;99.90
41904;DHT22;27586;51.124;4.182;2023-02-05T05:26:27;8.80;99.90
41904;DHT22;27586;51.124;4.182;2023-02-05T05:28:54;8.90;99.90
41904;DHT22;27586;51.124;4.182;2023-02-05T05:31:20;9.00;99.90
41904;DHT22;27586;51.124;4.182;2023-02-05T05:33:46;8.90;99.90
41904;DHT22;27586;51.124;4.182;2023-02-05T05:36:11;8.70;99.90
41904;DHT22;27586;51.124;4.182;2023-02-05T05:38:37;8.70;99.90
41904;DHT22;27586;51.124;4.182;2023-02-05T05:41:04;8.60;99.90
41904;DHT22;27586;51.124;4.182;2023-02-05T05:43:49;8.40;99.90
41904;DHT22;27586;51.124;4.182;2023-02-05T05:46:20;8.40;99.90
41904;DHT22;27586;51.124;4.182;2023-02-05T05:48:55;8.30;99.90
41904;DHT22;27586;51.124;4.182;2023-02-05T05:51:23;8.20;99.90
41904;DHT22;27586;51.124;4.182;2023-02-05T05:53:49;8.10;99.90
41904;DHT22;27586;51.124;4.182;2023-02-05T05:56:16;8.00;99.90
41904;DHT22;27586;51.124;4.182;2023-02-05T05:58:42;7.90;99.90
41904;DHT22;27586;51.124;4.182;2023-02-05T06:01:09;7.80;99.90
41904;DHT22;27586;51.124;4.182;2023-02-05T06:03:35;7.80;99.90
41904;DHT22;27586;51.124;4.182;2023-02-05T06:06:02;7.70;99.90
41904;DHT22;27586;51.124;4.182;2023-02-05T06:08:28;7.70;99.90
41904;DHT22;27586;51.124;4.182;2023-02-05T06:10:54;7.70;99.90
41904;DHT22;27586;51.124;4.182;2023-02-05T06:13:21;7.60;99.90
41904;DHT22;27586;51.124;4.182;2023-02-05T06:15:46;7.60;99.90
41904;DHT22;27586;51.124;4.182;2023-02-05T06:18:14;7.60;99.90
41904;DHT22;27586;51.124;4.182;2023-02-05T06:20:40;7.50;99.90
41904;DHT22;27586;51.124;4.182;2023-02-05T06:23:06;7.40;99.90
41904;DHT22;27586;51.124;4.182;2023-02-05T06:25:31;7.40;99.90
41904;DHT22;27586;51.124;4.182;2023-02-05T06:27:57;7.40;99.90
41904;DHT22;27586;51.124;4.182;2023-02-05T06:30:23;7.30;99.90
41904;DHT22;27586;51.124;4.182;2023-02-05T06:32:48;7.30;99.90
41904;DHT22;27586;51.124;4.182;2023-02-05T06:35:14;7.20;99.90
41904;DHT22;27586;51.124;4.182;2023-02-05T06:37:40;7.20;99.90
41904;DHT22;27586;51.124;4.182;2023-02-05T06:40:06;7.20;99.90
41904;DHT22;27586;51.124;4.182;2023-02-05T06:42:32;7.20;99.90
41904;DHT22;27586;51.124;4.182;2023-02-05T06:44:57;7.10;99.90
41904;DHT22;27586;51.124;4.182;2023-02-05T06:47:23;7.10;99.90
41904;DHT22;27586;51.124;4.182;2023-02-05T06:49:48;7.10;99.90
41904;DHT22;27586;51.124;4.182;2023-02-05T06:52:14;7.00;99.90
41904;DHT22;27586;51.124;4.182;2023-02-05T06:54:40;7.00;99.90
41904;DHT22;27586;51.124;4.182;2023-02-05T06:57:08;6.90;99.90
41904;DHT22;27586;51.124;4.182;2023-02-05T06:59:33;6.80;99.90
41904;DHT22;27586;51.124;4.182;2023-02-05T07:01:59;6.80;99.90
41904;DHT22;27586;51.124;4.182;2023-02-05T07:04:25;6.90;99.90
41904;DHT22;27586;51.124;4.182;2023-02-05T07:06:53;6.80;99.90
41904;DHT22;27586;51.124;4.182;2023-02-05T07:09:19;6.80;99.90
41904;DHT22;27586;51.124;4.182;2023-02-05T07:11:45;6.90;99.90
41904;DHT22;27586;51.124;4.182;2023-02-05T07:14:10;6.90;99.90
41904;DHT22;27586;51.124;4.182;2023-02-05T07:16:36;6.80;99.90
41904;DHT22;27586;51.124;4.182;2023-02-05T07:19:02;6.90;99.90
41904;DHT22;27586;51.124;4.182;2023-02-05T07:21:27;6.90;99.90
41904;DHT22;27586;51.124;4.182;2023-02-05T07:23:53;6.90;99.90
41904;DHT22;27586;51.124;4.182;2023-02-05T07:26:19;7.00;99.90
41904;DHT22;27586;51.124;4.182;2023-02-05T07:28:44;7.00;99.90
41904;DHT22;27586;51.124;4.182;2023-02-05T07:31:13;7.00;99.90
41904;DHT22;27586;51.124;4.182;2023-02-05T07:33:46;7.00;99.90
41904;DHT22;27586;51.124;4.182;2023-02-05T07:36:14;7.10;99.90
41904;DHT22;27586;51.124;4.182;2023-02-05T07:38:44;7.10;99.90
41904;DHT22;27586;51.124;4.182;2023-02-05T07:41:12;7.10;99.90
41904;DHT22;27586;51.124;4.182;2023-02-05T07:43:38;7.00;99.90
41904;DHT22;27586;51.124;4.182;2023-02-05T07:46:07;7.00;99.90
41904;DHT22;27586;51.124;4.182;2023-02-05T07:48:33;7.10;99.90
41904;DHT22;27586;51.124;4.182;2023-02-05T07:50:59;7.00;99.90
41904;DHT22;27586;51.124;4.182;2023-02-05T07:53:25;7.00;99.90
41904;DHT22;27586;51.124;4.182;2023-02-05T07:55:51;7.00;99.90
41904;DHT22;27586;51.124;4.182;2023-02-05T07:58:17;7.00;99.90
41904;DHT22;27586;51.124;4.182;2023-02-05T08:00:42;7.00;99.90
41904;DHT22;27586;51.124;4.182;2023-02-05T08:03:08;7.10;99.90
41904;DHT22;27586;51.124;4.182;2023-02-05T08:05:35;7.10;99.90
41904;DHT22;27586;51.124;4.182;2023-02-05T08:08:01;7.10;99.90
41904;DHT22;27586;51.124;4.182;2023-02-05T08:10:27;7.10;99.90
41904;DHT22;27586;51.124;4.182;2023-02-05T08:12:53;7.10;99.90
41904;DHT22;27586;51.124;4.182;2023-02-05T08:15:19;7.20;99.90
41904;DHT22;27586;51.124;4.182;2023-02-05T08:17:45;7.20;99.90
41904;DHT22;27586;51.124;4.182;2023-02-05T08:20:11;7.30;99.90
41904;DHT22;27586;51.124;4.182;2023-02-05T08:22:39;7.30;99.90
41904;DHT22;27586;51.124;4.182;2023-02-05T08:25:06;7.30;99.90
41904;DHT22;27586;51.124;4.182;2023-02-05T08:27:33;7.40;99.90
41904;DHT22;27586;51.124;4.182;2023-02-05T08:30:03;7.40;99.90
41904;DHT22;27586;51.124;4.182;2023-02-05T08:32:29;7.40;99.90
41904;DHT22;27586;51.124;4.182;2023-02-05T08:34:55;7.40;99.90
41904;DHT22;27586;51.124;4.182;2023-02-05T08:37:20;7.30;99.90
41904;DHT22;27586;51.124;4.182;2023-02-05T08:39:46;7.40;99.90
41904;DHT22;27586;51.124;4.182;2023-02-05T08:42:13;7.40;99.90
41904;DHT22;27586;51.124;4.182;2023-02-05T08:44:39;7.50;99.90
41904;DHT22;27586;51.124;4.182;2023-02-05T08:47:04;7.50;99.90
41904;DHT22;27586;51.124;4.182;2023-02-05T08:49:30;7.50;99.90
41904;DHT22;27586;51.124;4.182;2023-02-05T08:51:56;7.50;99.90
41904;DHT22;27586;51.124;4.182;2023-02-05T08:54:23;7.50;99.90
41904;DHT22;27586;51.124;4.182;2023-02-05T08:56:49;7.50;99.90
41904;DHT22;27586;51.124;4.182;2023-02-05T08:59:15;7.50;99.90
41904;DHT22;27586;51.124;4.182;2023-02-05T09:01:42;7.60;99.90
41904;DHT22;27586;51.124;4.182;2023-02-05T09:04:20;7.60;99.90
41904;DHT22;27586;51.124;4.182;2023-02-05T09:06:48;7.50;99.90
41904;DHT22;27586;51.124;4.182;2023-02-05T09:09:14;7.40;99.90
41904;DHT22;27586;51.124;4.182;2023-02-05T09:11:40;7.30;99.90
41904;DHT22;27586;51.124;4.182;2023-02-05T09:14:07;7.20;99.90
41904;DHT22;27586;51.124;4.182;2023-02-05T09:16:33;7.00;99.90
41904;DHT22;27586;51.124;4.182;2023-02-05T09:18:59;6.80;99.90
41904;DHT22;27586;51.124;4.182;2023-02-05T09:21:25;6.80;99.90
41904;DHT22;27586;51.124;4.182;2023-02-05T09:23:52;6.80;99.90
41904;DHT22;27586;51.124;4.182;2023-02-05T09:26:18;6.90;99.90
41904;DHT22;27586;51.124;4.182;2023-02-05T09:28:44;6.90;99.90
41904;DHT22;27586;51.124;4.182;2023-02-05T09:31:15;6.90;99.90
41904;DHT22;27586;51.124;4.182;2023-02-05T09:33:41;7.00;99.90
41904;DHT22;27586;51.124;4.182;2023-02-05T09:36:09;7.10;99.90
41904;DHT22;27586;51.124;4.182;2023-02-05T09:38:36;7.20;99.90
41904;DHT22;27586;51.124;4.182;2023-02-05T09:51:51;7.30;99.90
41904;DHT22;27586;51.124;4.182;2023-02-05T09:54:24;7.30;99.90
41904;DHT22;27586;51.124;4.182;2023-02-05T09:56:54;7.30;99.90
41904;DHT22;27586;51.124;4.182;2023-02-05T09:59:23;7.30;99.90
41904;DHT22;27586;51.124;4.182;2023-02-05T10:04:36;7.30;99.90
41904;DHT22;27586;51.124;4.182;2023-02-05T10:07:33;7.40;99.90
41904;DHT22;27586;51.124;4.182;2023-02-05T10:10:22;7.60;99.90
41904;DHT22;27586;51.124;4.182;2023-02-05T10:13:11;7.60;99.90
41904;DHT22;27586;51.124;4.182;2023-02-05T10:18:28;7.80;99.90
41904;DHT22;27586;51.124;4.182;2023-02-05T10:26:22;7.90;99.90
41904;DHT22;27586;51.124;4.182;2023-02-05T10:31:42;8.00;99.90
41904;DHT22;27586;51.124;4.182;2023-02-05T10:34:31;7.90;99.90
41904;DHT22;27586;51.124;4.182;2023-02-05T10:37:04;7.80;99.90
41904;DHT22;27586;51.124;4.182;2023-02-05T10:39:31;7.80;99.90
41904;DHT22;27586;51.124;4.182;2023-02-05T10:42:25;7.80;99.90
41904;DHT22;27586;51.124;4.182;2023-02-05T10:45:42;7.80;99.90
41904;DHT22;27586;51.124;4.182;2023-02-05T10:53:23;7.90;99.90
41904;DHT22;27586;51.124;4.182;2023-02-05T10:55:49;8.10;99.90
41904;DHT22;27586;51.124;4.182;2023-02-05T11:00:59;8.20;99.90
41904;DHT22;27586;51.124;4.182;2023-02-05T11:03:25;8.10;99.90
41904;DHT22;27586;51.124;4.182;2023-02-05T11:05:51;8.10;99.90
41904;DHT22;27586;51.124;4.182;2023-02-05T11:08:52;8.20;99.90
41904;DHT22;27586;51.124;4.182;2023-02-05T11:11:27;8.30;99.90
41904;DHT22;27586;51.124;4.182;2023-02-05T11:14:01;8.20;99.90
41904;DHT22;27586;51.124;4.182;2023-02-05T11:16:41;8.10;99.90
41904;DHT22;27586;51.124;4.182;2023-02-05T11:19:37;8.00;99.90
41904;DHT22;27586;51.124;4.182;2023-02-05T11:22:04;8.10;99.90
41904;DHT22;27586;51.124;4.182;2023-02-05T11:24:32;8.30;99.90
41904;DHT22;27586;51.124;4.182;2023-02-05T11:27:31;8.40;99.90
41904;DHT22;27586;51.124;4.182;2023-02-05T11:30:57;8.50;99.90
41904;DHT22;27586;51.124;4.182;2023-02-05T11:41:35;8.50;99.90
41904;DHT22;27586;51.124;4.182;2023-02-05T11:44:18;8.60;99.90
41904;DHT22;27586;51.124;4.182;2023-02-05T11:46:45;8.70;99.90
41904;DHT22;27586;51.124;4.182;2023-02-05T11:49:22;8.60;99.90
41904;DHT22;27586;51.124;4.182;2023-02-05T11:51:52;8.70;99.90
41904;DHT22;27586;51.124;4.182;2023-02-05T11:54:22;8.80;99.90
41904;DHT22;27586;51.124;4.182;2023-02-05T11:59:38;8.60;99.90
41904;DHT22;27586;51.124;4.182;2023-02-05T12:13:50;8.70;99.90
41904;DHT22;27586;51.124;4.182;2023-02-05T12:16:47;8.80;99.90
41904;DHT22;27586;51.124;4.182;2023-02-05T12:19:49;8.90;99.90
41904;DHT22;27586;51.124;4.182;2023-02-05T12:22:25;8.70;99.90
41904;DHT22;27586;51.124;4.182;2023-02-05T12:25:13;8.60;99.90
41904;DHT22;27586;51.124;4.182;2023-02-05T12:28:02;8.80;99.90
41904;DHT22;27586;51.124;4.182;2023-02-05T12:30:38;8.90;99.90
41904;DHT22;27586;51.124;4.182;2023-02-05T12:33:26;8.90;99.90
41904;DHT22;27586;51.124;4.182;2023-02-05T12:43:43;8.80;99.90
41904;DHT22;27586;51.124;4.182;2023-02-05T12:51:39;8.80;99.90
41904;DHT22;27586;51.124;4.182;2023-02-05T12:56:51;8.70;99.90
41904;DHT22;27586;51.124;4.182;2023-02-05T13:02:00;8.70;99.90
41904;DHT22;27586;51.124;4.182;2023-02-05T13:04:33;8.80;99.90
41904;DHT22;27586;51.124;4.182;2023-02-05T13:07:06;8.90;99.90
41904;DHT22;27586;51.124;4.182;2023-02-05T13:09:52;8.80;99.90
41904;DHT22;27586;51.124;4.182;2023-02-05T13:12:22;8.70;99.90
41904;DHT22;27586;51.124;4.182;2023-02-05T13:17:42;8.80;99.90
41904;DHT22;27586;51.124;4.182;2023-02-05T13:20:27;8.80;99.90
41904;DHT22;27586;51.124;4.182;2023-02-05T13:23:14;8.80;99.90
41904;DHT22;27586;51.124;4.182;2023-02-05T13:25:58;8.90;99.90
41904;DHT22;27586;51.124;4.182;2023-02-05T13:28:51;9.10;99.90
41904;DHT22;27586;51.124;4.182;2023-02-05T13:31:37;9.00;99.90
41904;DHT22;27586;51.124;4.182;2023-02-05T13:34:06;8.70;99.90
41904;DHT22;27586;51.124;4.182;2023-02-05T13:42:46;8.90;99.90
41904;DHT22;27586;51.124;4.182;2023-02-05T13:45:29;8.80;99.90
41904;DHT22;27586;51.124;4.182;2023-02-05T14:01:48;8.60;99.90
41904;DHT22;27586;51.124;4.182;2023-02-05T14:04:20;8.70;99.90
41904;DHT22;27586;51.124;4.182;2023-02-05T14:09:54;8.80;99.90
41904;DHT22;27586;51.124;4.182;2023-02-05T14:12:39;8.90;99.90
41904;DHT22;27586;51.124;4.182;2023-02-05T14:22:56;8.60;99.90
41904;DHT22;27586;51.124;4.182;2023-02-05T14:28:00;8.60;99.90
41904;DHT22;27586;51.124;4.182;2023-02-05T14:38:53;8.60;99.90
41904;DHT22;27586;51.124;4.182;2023-02-05T14:41:50;8.60;99.90
41904;DHT22;27586;51.124;4.182;2023-02-05T14:54:47;8.60;99.90
41904;DHT22;27586;51.124;4.182;2023-02-05T14:59:56;8.50;99.90
41904;DHT22;27586;51.124;4.182;2023-02-05T15:02:57;8.40;99.90
41904;DHT22;27586;51.124;4.182;2023-02-05T15:13:34;8.30;99.90
41904;DHT22;27586;51.124;4.182;2023-02-05T15:18:44;8.30;99.90
41904;DHT22;27586;51.124;4.182;2023-02-05T15:24:39;8.30;99.90
41904;DHT22;27586;51.124;4.182;2023-02-05T15:27:10;8.30;99.90
41904;DHT22;27586;51.124;4.182;2023-02-05T15:29:46;8.30;99.90
41904;DHT22;27586;51.124;4.182;2023-02-05T15:32:24;8.30;99.90
41904;DHT22;27586;51.124;4.182;2023-02-05T15:35:09;8.10;99.90
41904;DHT22;27586;51.124;4.182;2023-02-05T15:37:45;8.10;99.90
41904;DHT22;27586;51.124;4.182;2023-02-05T15:40:18;8.10;99.90
41904;DHT22;27586;51.124;4.182;2023-02-05T15:42:48;8.00;99.90
41904;DHT22;27586;51.124;4.182;2023-02-05T15:47:42;8.00;99.90
41904;DHT22;27586;51.124;4.182;2023-02-05T15:50:12;8.00;99.90
41904;DHT22;27586;51.124;4.182;2023-02-05T15:52:40;8.00;99.90
41904;DHT22;27586;51.124;4.182;2023-02-05T15:55:16;7.90;99.90
41904;DHT22;27586;51.124;4.182;2023-02-05T15:57:43;7.90;99.90
41904;DHT22;27586;51.124;4.182;2023-02-05T16:00:16;7.80;99.90
41904;DHT22;27586;51.124;4.182;2023-02-05T16:02:52;7.80;99.90
41904;DHT22;27586;51.124;4.182;2023-02-05T16:05:20;7.70;99.90
41904;DHT22;27586;51.124;4.182;2023-02-05T16:07:46;7.70;99.90
41904;DHT22;27586;51.124;4.182;2023-02-05T16:10:17;7.70;99.90
41904;DHT22;27586;51.124;4.182;2023-02-05T16:13:14;7.60;99.90
41904;DHT22;27586;51.124;4.182;2023-02-05T16:21:15;7.50;99.90
41904;DHT22;27586;51.124;4.182;2023-02-05T16:23:45;7.50;99.90
41904;DHT22;27586;51.124;4.182;2023-02-05T16:26:18;7.60;99.90
41904;DHT22;27586;51.124;4.182;2023-02-05T16:28:57;7.60;99.90
41904;DHT22;27586;51.124;4.182;2023-02-05T16:31:25;7.50;99.90
41904;DHT22;27586;51.124;4.182;2023-02-05T16:34:05;7.40;99.90
41904;DHT22;27586;51.124;4.182;2023-02-05T16:36:36;7.40;99.90
41904;DHT22;27586;51.124;4.182;2023-02-05T16:39:05;7.40;99.90
41904;DHT22;27586;51.124;4.182;2023-02-05T16:41:37;7.40;99.90
41904;DHT22;27586;51.124;4.182;2023-02-05T16:44:05;7.40;99.90
41904;DHT22;27586;51.124;4.182;2023-02-05T16:46:33;7.40;99.90
41904;DHT22;27586;51.124;4.182;2023-02-05T16:49:27;7.30;99.90
41904;DHT22;27586;51.124;4.182;2023-02-05T16:54:22;7.30;99.90
41904;DHT22;27586;51.124;4.182;2023-02-05T16:59:23;7.20;99.90
41904;DHT22;27586;51.124;4.182;2023-02-05T17:01:51;7.10;99.90
41904;DHT22;27586;51.124;4.182;2023-02-05T17:04:28;7.10;99.90
41904;DHT22;27586;51.124;4.182;2023-02-05T17:06:56;7.00;99.90
41904;DHT22;27586;51.124;4.182;2023-02-05T17:09:40;7.10;99.90
41904;DHT22;27586;51.124;4.182;2023-02-05T17:17:52;7.00;99.90
41904;DHT22;27586;51.124;4.182;2023-02-05T17:20:19;7.00;99.90
41904;DHT22;27586;51.124;4.182;2023-02-05T17:25:37;7.00;99.90
41904;DHT22;27586;51.124;4.182;2023-02-05T17:28:04;7.00;99.90
41904;DHT22;27586;51.124;4.182;2023-02-05T17:30:31;7.00;99.90
41904;DHT22;27586;51.124;4.182;2023-02-05T17:32:57;6.90;99.90
41904;DHT22;27586;51.124;4.182;2023-02-05T17:35:22;7.00;99.90
41904;DHT22;27586;51.124;4.182;2023-02-05T17:37:52;7.00;99.90
41904;DHT22;27586;51.124;4.182;2023-02-05T17:40:18;7.00;99.90
41904;DHT22;27586;51.124;4.182;2023-02-05T17:42:45;6.90;99.90
41904;DHT22;27586;51.124;4.182;2023-02-05T17:45:20;6.90;99.90
41904;DHT22;27586;51.124;4.182;2023-02-05T17:47:46;6.90;99.90
41904;DHT22;27586;51.124;4.182;2023-02-05T17:50:12;6.80;99.90
41904;DHT22;27586;51.124;4.182;2023-02-05T17:52:38;6.70;99.90
41904;DHT22;27586;51.124;4.182;2023-02-05T17:55:04;6.70;99.90
41904;DHT22;27586;51.124;4.182;2023-02-05T17:57:31;6.60;99.90
41904;DHT22;27586;51.124;4.182;2023-02-05T18:00:02;6.60;99.90
41904;DHT22;27586;51.124;4.182;2023-02-05T18:02:28;6.60;99.90
41904;DHT22;27586;51.124;4.182;2023-02-05T18:04:54;6.70;99.90
41904;DHT22;27586;51.124;4.182;2023-02-05T18:07:32;6.70;99.90
41904;DHT22;27586;51.124;4.182;2023-02-05T18:09:59;6.60;99.90
41904;DHT22;27586;51.124;4.182;2023-02-05T18:12:25;6.50;99.90
41904;DHT22;27586;51.124;4.182;2023-02-05T18:14:51;6.60;99.90
41904;DHT22;27586;51.124;4.182;2023-02-05T18:17:17;6.60;99.90
41904;DHT22;27586;51.124;4.182;2023-02-05T18:19:43;6.60;99.90
41904;DHT22;27586;51.124;4.182;2023-02-05T18:22:09;6.50;99.90
41904;DHT22;27586;51.124;4.182;2023-02-05T18:24:34;6.50;99.90
41904;DHT22;27586;51.124;4.182;2023-02-05T18:27:05;6.50;99.90
41904;DHT22;27586;51.124;4.182;2023-02-05T18:29:33;6.50;99.90
41904;DHT22;27586;51.124;4.182;2023-02-05T18:31:59;6.60;99.90
41904;DHT22;27586;51.124;4.182;2023-02-05T18:34:25;6.60;99.90
41904;DHT22;27586;51.124;4.182;2023-02-05T18:36:51;6.60;99.90
41904;DHT22;27586;51.124;4.182;2023-02-05T18:39:17;6.50;99.90
41904;DHT22;27586;51.124;4.182;2023-02-05T18:41:43;6.50;99.90
41904;DHT22;27586;51.124;4.182;2023-02-05T18:44:09;6.50;99.90
41904;DHT22;27586;51.124;4.182;2023-02-05T18:46:35;6.50;99.90
41904;DHT22;27586;51.124;4.182;2023-02-05T18:49:00;6.60;99.90
41904;DHT22;27586;51.124;4.182;2023-02-05T18:51:26;6.40;99.90
41904;DHT22;27586;51.124;4.182;2023-02-05T18:53:52;6.40;99.90
41904;DHT22;27586;51.124;4.182;2023-02-05T18:56:23;6.50;99.90
41904;DHT22;27586;51.124;4.182;2023-02-05T18:59:02;6.50;99.90
41904;DHT22;27586;51.124;4.182;2023-02-05T19:01:32;6.50;99.90
41904;DHT22;27586;51.124;4.182;2023-02-05T19:04:03;6.50;99.90
41904;DHT22;27586;51.124;4.182;2023-02-05T19:06:28;6.40;99.90
41904;DHT22;27586;51.124;4.182;2023-02-05T19:08:56;6.40;99.90
41904;DHT22;27586;51.124;4.182;2023-02-05T19:11:23;6.60;99.90
41904;DHT22;27586;51.124;4.182;2023-02-05T19:13:57;6.60;99.90
41904;DHT22;27586;51.124;4.182;2023-02-05T19:16:25;6.50;99.90
41904;DHT22;27586;51.124;4.182;2023-02-05T19:18:50;6.60;99.90
41904;DHT22;27586;51.124;4.182;2023-02-05T19:21:17;6.60;99.90